Terminal Aerodrome Forecast
Issued by NWS

Home | Current Version | Previous Version | Text Only | Print | Product List | Glossary Off
Versions: 1 2 3 4 5 6 7 8 9 10 11 12 13 14 15 16 17

000
FTUS43 KICT 241700
TAFSLN
TAF
KSLN 241720Z 2418/2518 20016G25KT P6SM FEW080
     FM242200 18015KT P6SM VCTS BKN070CB
     FM250300 16009KT P6SM SCT100 BKN150=

USA.gov is the U.S. government's official web portal to all federal, state and local government web resources and services.